sensor_id;sensor_type;location;lat;lon;timestamp;temperature;humidity
26537;DHT22;14204;51.262;5.488;2023-05-07T00:01:06;17.10;99.90
26537;DHT22;14204;51.262;5.488;2023-05-07T00:03:32;17.10;99.90
26537;DHT22;14204;51.262;5.488;2023-05-07T00:05:58;17.10;99.90
26537;DHT22;14204;51.262;5.488;2023-05-07T00:08:24;17.20;99.90
26537;DHT22;14204;51.262;5.488;2023-05-07T00:10:50;17.20;99.90
26537;DHT22;14204;51.262;5.488;2023-05-07T00:13:16;17.20;99.90
26537;DHT22;14204;51.262;5.488;2023-05-07T00:15:42;17.20;99.90
26537;DHT22;14204;51.262;5.488;2023-05-07T00:18:08;17.20;99.90
26537;DHT22;14204;51.262;5.488;2023-05-07T00:20:33;17.20;99.90
26537;DHT22;14204;51.262;5.488;2023-05-07T00:22:59;17.20;99.90
26537;DHT22;14204;51.262;5.488;2023-05-07T00:25:25;17.20;99.90
26537;DHT22;14204;51.262;5.488;2023-05-07T00:27:50;17.20;99.90
26537;DHT22;14204;51.262;5.488;2023-05-07T00:30:16;17.20;99.90
26537;DHT22;14204;51.262;5.488;2023-05-07T00:32:42;17.20;99.90
26537;DHT22;14204;51.262;5.488;2023-05-07T00:35:11;17.20;99.90
26537;DHT22;14204;51.262;5.488;2023-05-07T00:37:37;17.20;99.90
26537;DHT22;14204;51.262;5.488;2023-05-07T00:40:03;17.20;99.90
26537;DHT22;14204;51.262;5.488;2023-05-07T00:42:32;17.20;99.90
26537;DHT22;14204;51.262;5.488;2023-05-07T00:44:58;17.20;99.90
26537;DHT22;14204;51.262;5.488;2023-05-07T00:47:25;17.20;99.90
26537;DHT22;14204;51.262;5.488;2023-05-07T00:49:51;17.20;99.90
26537;DHT22;14204;51.262;5.488;2023-05-07T00:52:17;17.20;99.90
26537;DHT22;14204;51.262;5.488;2023-05-07T00:54:45;17.20;99.90
26537;DHT22;14204;51.262;5.488;2023-05-07T00:57:11;17.20;99.90
26537;DHT22;14204;51.262;5.488;2023-05-07T00:59:37;17.10;99.90
26537;DHT22;14204;51.262;5.488;2023-05-07T01:02:03;17.10;99.90
26537;DHT22;14204;51.262;5.488;2023-05-07T01:04:29;17.10;99.90
26537;DHT22;14204;51.262;5.488;2023-05-07T01:06:55;17.00;99.90
26537;DHT22;14204;51.262;5.488;2023-05-07T01:09:23;17.10;99.90
26537;DHT22;14204;51.262;5.488;2023-05-07T01:11:50;17.10;99.90
26537;DHT22;14204;51.262;5.488;2023-05-07T01:14:17;17.00;99.90
26537;DHT22;14204;51.262;5.488;2023-05-07T01:16:43;17.00;99.90
26537;DHT22;14204;51.262;5.488;2023-05-07T01:19:10;17.00;99.90
26537;DHT22;14204;51.262;5.488;2023-05-07T01:21:38;17.10;99.90
26537;DHT22;14204;51.262;5.488;2023-05-07T01:24:04;17.00;99.90
26537;DHT22;14204;51.262;5.488;2023-05-07T01:26:31;17.00;99.90
26537;DHT22;14204;51.262;5.488;2023-05-07T01:28:56;17.00;99.90
26537;DHT22;14204;51.262;5.488;2023-05-07T01:31:23;17.00;99.90
26537;DHT22;14204;51.262;5.488;2023-05-07T01:33:50;17.10;99.90
26537;DHT22;14204;51.262;5.488;2023-05-07T01:36:17;17.00;99.90
26537;DHT22;14204;51.262;5.488;2023-05-07T01:38:44;17.00;99.90
26537;DHT22;14204;51.262;5.488;2023-05-07T01:41:11;17.00;99.90
26537;DHT22;14204;51.262;5.488;2023-05-07T01:43:38;17.00;99.90
26537;DHT22;14204;51.262;5.488;2023-05-07T01:46:05;17.00;99.90
26537;DHT22;14204;51.262;5.488;2023-05-07T01:48:32;16.90;99.90
26537;DHT22;14204;51.262;5.488;2023-05-07T01:50:59;17.00;99.90
26537;DHT22;14204;51.262;5.488;2023-05-07T01:53:27;17.00;99.90
26537;DHT22;14204;51.262;5.488;2023-05-07T01:55:53;16.90;99.90
26537;DHT22;14204;51.262;5.488;2023-05-07T01:58:19;16.90;99.90
26537;DHT22;14204;51.262;5.488;2023-05-07T02:00:44;16.90;99.90
26537;DHT22;14204;51.262;5.488;2023-05-07T02:03:10;16.80;99.90
26537;DHT22;14204;51.262;5.488;2023-05-07T02:05:36;16.90;99.90
26537;DHT22;14204;51.262;5.488;2023-05-07T02:08:02;16.80;99.90
26537;DHT22;14204;51.262;5.488;2023-05-07T02:10:27;16.80;99.90
26537;DHT22;14204;51.262;5.488;2023-05-07T02:12:53;16.80;99.90
26537;DHT22;14204;51.262;5.488;2023-05-07T02:15:19;16.80;99.90
26537;DHT22;14204;51.262;5.488;2023-05-07T02:18:05;16.80;99.90
26537;DHT22;14204;51.262;5.488;2023-05-07T02:20:31;16.80;99.90
26537;DHT22;14204;51.262;5.488;2023-05-07T02:22:58;16.80;99.90
26537;DHT22;14204;51.262;5.488;2023-05-07T02:25:23;16.80;99.90
26537;DHT22;14204;51.262;5.488;2023-05-07T02:27:49;16.80;99.90
26537;DHT22;14204;51.262;5.488;2023-05-07T02:30:15;16.90;99.90
26537;DHT22;14204;51.262;5.488;2023-05-07T02:32:41;16.80;99.90
26537;DHT22;14204;51.262;5.488;2023-05-07T02:35:07;16.90;99.90
26537;DHT22;14204;51.262;5.488;2023-05-07T02:37:32;16.80;99.90
26537;DHT22;14204;51.262;5.488;2023-05-07T02:39:58;16.80;99.90
26537;DHT22;14204;51.262;5.488;2023-05-07T02:42:24;16.80;99.90
26537;DHT22;14204;51.262;5.488;2023-05-07T02:44:49;16.80;99.90
26537;DHT22;14204;51.262;5.488;2023-05-07T02:47:15;16.80;99.90
26537;DHT22;14204;51.262;5.488;2023-05-07T02:49:41;16.80;99.90
26537;DHT22;14204;51.262;5.488;2023-05-07T02:52:07;16.80;99.90
26537;DHT22;14204;51.262;5.488;2023-05-07T02:54:33;16.80;99.90
26537;DHT22;14204;51.262;5.488;2023-05-07T02:56:58;16.80;99.90
26537;DHT22;14204;51.262;5.488;2023-05-07T02:59:26;16.80;99.90
26537;DHT22;14204;51.262;5.488;2023-05-07T03:01:51;16.80;99.90
26537;DHT22;14204;51.262;5.488;2023-05-07T03:04:17;16.80;99.90
26537;DHT22;14204;51.262;5.488;2023-05-07T03:06:43;16.70;99.90
26537;DHT22;14204;51.262;5.488;2023-05-07T03:09:09;16.70;99.90
26537;DHT22;14204;51.262;5.488;2023-05-07T03:11:34;16.70;99.90
26537;DHT22;14204;51.262;5.488;2023-05-07T03:14:01;16.70;99.90
26537;DHT22;14204;51.262;5.488;2023-05-07T03:16:27;16.70;99.90
26537;DHT22;14204;51.262;5.488;2023-05-07T03:18:53;16.70;99.90
26537;DHT22;14204;51.262;5.488;2023-05-07T03:21:18;16.70;99.90
26537;DHT22;14204;51.262;5.488;2023-05-07T03:23:44;16.60;99.90
26537;DHT22;14204;51.262;5.488;2023-05-07T03:26:10;16.60;99.90
26537;DHT22;14204;51.262;5.488;2023-05-07T03:28:36;16.60;99.90
26537;DHT22;14204;51.262;5.488;2023-05-07T03:31:02;16.60;99.90
26537;DHT22;14204;51.262;5.488;2023-05-07T03:33:28;16.70;99.90
26537;DHT22;14204;51.262;5.488;2023-05-07T03:35:54;16.60;99.90
26537;DHT22;14204;51.262;5.488;2023-05-07T03:38:19;16.70;99.90
26537;DHT22;14204;51.262;5.488;2023-05-07T03:40:45;16.70;99.90
26537;DHT22;14204;51.262;5.488;2023-05-07T03:43:11;16.60;99.90
26537;DHT22;14204;51.262;5.488;2023-05-07T03:45:36;16.60;99.90
26537;DHT22;14204;51.262;5.488;2023-05-07T03:48:02;16.60;99.90
26537;DHT22;14204;51.262;5.488;2023-05-07T03:50:28;16.60;99.90
26537;DHT22;14204;51.262;5.488;2023-05-07T03:52:54;16.70;99.90
26537;DHT22;14204;51.262;5.488;2023-05-07T03:55:20;16.60;99.90
26537;DHT22;14204;51.262;5.488;2023-05-07T03:57:45;16.60;99.90
26537;DHT22;14204;51.262;5.488;2023-05-07T04:00:11;16.60;99.90
26537;DHT22;14204;51.262;5.488;2023-05-07T04:02:37;16.60;99.90
26537;DHT22;14204;51.262;5.488;2023-05-07T04:05:03;16.60;99.90
26537;DHT22;14204;51.262;5.488;2023-05-07T04:07:29;16.60;99.90
26537;DHT22;14204;51.262;5.488;2023-05-07T04:09:54;16.60;99.90
26537;DHT22;14204;51.262;5.488;2023-05-07T04:12:20;16.60;99.90
26537;DHT22;14204;51.262;5.488;2023-05-07T04:14:45;16.70;99.90
26537;DHT22;14204;51.262;5.488;2023-05-07T04:17:11;16.60;99.90
26537;DHT22;14204;51.262;5.488;2023-05-07T04:19:37;16.60;99.90
26537;DHT22;14204;51.262;5.488;2023-05-07T04:22:03;16.50;99.90
26537;DHT22;14204;51.262;5.488;2023-05-07T04:24:31;16.60;99.90
26537;DHT22;14204;51.262;5.488;2023-05-07T04:26:58;16.60;99.90
26537;DHT22;14204;51.262;5.488;2023-05-07T04:29:24;16.60;99.90
26537;DHT22;14204;51.262;5.488;2023-05-07T04:31:49;16.60;99.90
26537;DHT22;14204;51.262;5.488;2023-05-07T04:34:15;16.60;99.90
26537;DHT22;14204;51.262;5.488;2023-05-07T04:36:42;16.60;99.90
26537;DHT22;14204;51.262;5.488;2023-05-07T04:39:08;16.60;99.90
26537;DHT22;14204;51.262;5.488;2023-05-07T04:41:36;16.40;99.90
26537;DHT22;14204;51.262;5.488;2023-05-07T04:44:01;16.50;99.90
26537;DHT22;14204;51.262;5.488;2023-05-07T04:46:30;16.50;99.90
26537;DHT22;14204;51.262;5.488;2023-05-07T04:48:56;16.50;99.90
26537;DHT22;14204;51.262;5.488;2023-05-07T04:51:21;16.50;99.90
26537;DHT22;14204;51.262;5.488;2023-05-07T04:53:48;16.40;99.90
26537;DHT22;14204;51.262;5.488;2023-05-07T04:56:14;16.50;99.90
26537;DHT22;14204;51.262;5.488;2023-05-07T04:58:39;16.60;99.90
26537;DHT22;14204;51.262;5.488;2023-05-07T05:01:05;16.60;99.90
26537;DHT22;14204;51.262;5.488;2023-05-07T05:03:31;16.60;99.90
26537;DHT22;14204;51.262;5.488;2023-05-07T05:05:57;16.60;99.90
26537;DHT22;14204;51.262;5.488;2023-05-07T05:08:25;16.70;99.90
26537;DHT22;14204;51.262;5.488;2023-05-07T05:10:51;16.70;99.90
26537;DHT22;14204;51.262;5.488;2023-05-07T05:13:16;16.70;99.90
26537;DHT22;14204;51.262;5.488;2023-05-07T05:15:43;16.80;99.90
26537;DHT22;14204;51.262;5.488;2023-05-07T05:18:08;16.80;99.90
26537;DHT22;14204;51.262;5.488;2023-05-07T05:20:34;16.80;99.90
26537;DHT22;14204;51.262;5.488;2023-05-07T05:23:00;16.80;99.90
26537;DHT22;14204;51.262;5.488;2023-05-07T05:25:25;16.80;99.90
26537;DHT22;14204;51.262;5.488;2023-05-07T05:27:51;16.70;99.90
26537;DHT22;14204;51.262;5.488;2023-05-07T05:30:17;16.70;99.90
26537;DHT22;14204;51.262;5.488;2023-05-07T05:32:43;16.80;99.90
26537;DHT22;14204;51.262;5.488;2023-05-07T05:35:08;16.90;99.90
26537;DHT22;14204;51.262;5.488;2023-05-07T05:37:34;16.90;99.90
26537;DHT22;14204;51.262;5.488;2023-05-07T05:40:00;17.00;99.90
26537;DHT22;14204;51.262;5.488;2023-05-07T05:42:25;17.00;99.90
26537;DHT22;14204;51.262;5.488;2023-05-07T05:44:51;17.00;99.90
26537;DHT22;14204;51.262;5.488;2023-05-07T05:47:16;17.10;99.90
26537;DHT22;14204;51.262;5.488;2023-05-07T05:49:42;17.10;99.90
26537;DHT22;14204;51.262;5.488;2023-05-07T05:52:09;17.20;99.90
26537;DHT22;14204;51.262;5.488;2023-05-07T05:54:35;17.20;99.90
26537;DHT22;14204;51.262;5.488;2023-05-07T05:57:00;17.30;99.90
26537;DHT22;14204;51.262;5.488;2023-05-07T05:59:29;17.30;99.90
26537;DHT22;14204;51.262;5.488;2023-05-07T06:01:55;17.30;99.90
26537;DHT22;14204;51.262;5.488;2023-05-07T06:04:20;17.30;99.90
26537;DHT22;14204;51.262;5.488;2023-05-07T06:06:46;17.40;99.90
26537;DHT22;14204;51.262;5.488;2023-05-07T06:09:12;17.40;99.90
26537;DHT22;14204;51.262;5.488;2023-05-07T06:11:37;17.40;99.90
26537;DHT22;14204;51.262;5.488;2023-05-07T06:14:03;17.50;99.90
26537;DHT22;14204;51.262;5.488;2023-05-07T06:16:29;17.50;99.90
26537;DHT22;14204;51.262;5.488;2023-05-07T06:18:55;17.50;99.90
26537;DHT22;14204;51.262;5.488;2023-05-07T06:21:21;17.50;99.90
26537;DHT22;14204;51.262;5.488;2023-05-07T06:23:46;17.50;99.90
26537;DHT22;14204;51.262;5.488;2023-05-07T06:26:12;17.50;99.90
26537;DHT22;14204;51.262;5.488;2023-05-07T06:28:38;17.50;99.90
26537;DHT22;14204;51.262;5.488;2023-05-07T06:31:14;17.60;99.90
26537;DHT22;14204;51.262;5.488;2023-05-07T06:33:40;17.50;99.90
26537;DHT22;14204;51.262;5.488;2023-05-07T06:36:06;17.50;99.90
26537;DHT22;14204;51.262;5.488;2023-05-07T06:38:32;17.60;99.90
26537;DHT22;14204;51.262;5.488;2023-05-07T06:40:57;17.60;99.90
26537;DHT22;14204;51.262;5.488;2023-05-07T06:43:23;17.70;99.90
26537;DHT22;14204;51.262;5.488;2023-05-07T06:45:49;17.70;99.90
26537;DHT22;14204;51.262;5.488;2023-05-07T06:48:14;17.70;99.90
26537;DHT22;14204;51.262;5.488;2023-05-07T06:50:41;17.70;99.90
26537;DHT22;14204;51.262;5.488;2023-05-07T06:53:07;17.80;99.90
26537;DHT22;14204;51.262;5.488;2023-05-07T06:55:32;17.70;99.90
26537;DHT22;14204;51.262;5.488;2023-05-07T06:57:58;17.80;99.90
26537;DHT22;14204;51.262;5.488;2023-05-07T07:00:27;17.80;99.90
26537;DHT22;14204;51.262;5.488;2023-05-07T07:02:54;17.90;99.90
26537;DHT22;14204;51.262;5.488;2023-05-07T07:05:20;18.00;99.90
26537;DHT22;14204;51.262;5.488;2023-05-07T07:07:46;17.90;99.90
26537;DHT22;14204;51.262;5.488;2023-05-07T07:10:19;18.00;99.90
26537;DHT22;14204;51.262;5.488;2023-05-07T07:12:45;18.10;99.90
26537;DHT22;14204;51.262;5.488;2023-05-07T07:15:16;18.10;99.90
26537;DHT22;14204;51.262;5.488;2023-05-07T07:17:43;18.10;99.90
26537;DHT22;14204;51.262;5.488;2023-05-07T07:20:12;18.10;99.90
26537;DHT22;14204;51.262;5.488;2023-05-07T07:22:38;18.20;99.90
26537;DHT22;14204;51.262;5.488;2023-05-07T07:25:04;18.20;99.90
26537;DHT22;14204;51.262;5.488;2023-05-07T07:27:30;18.20;99.90
26537;DHT22;14204;51.262;5.488;2023-05-07T07:29:55;18.30;99.90
26537;DHT22;14204;51.262;5.488;2023-05-07T07:32:21;18.20;99.90
26537;DHT22;14204;51.262;5.488;2023-05-07T07:34:47;18.30;99.90
26537;DHT22;14204;51.262;5.488;2023-05-07T07:37:12;18.40;99.90
26537;DHT22;14204;51.262;5.488;2023-05-07T07:39:38;18.40;99.90
26537;DHT22;14204;51.262;5.488;2023-05-07T07:42:04;18.50;99.90
26537;DHT22;14204;51.262;5.488;2023-05-07T07:44:29;18.50;99.90
26537;DHT22;14204;51.262;5.488;2023-05-07T07:46:55;18.50;99.90
26537;DHT22;14204;51.262;5.488;2023-05-07T07:49:21;18.50;99.90
26537;DHT22;14204;51.262;5.488;2023-05-07T07:51:47;18.50;99.90
26537;DHT22;14204;51.262;5.488;2023-05-07T07:54:12;18.50;99.90
26537;DHT22;14204;51.262;5.488;2023-05-07T07:56:38;18.50;99.90
26537;DHT22;14204;51.262;5.488;2023-05-07T07:59:04;18.60;99.90
26537;DHT22;14204;51.262;5.488;2023-05-07T08:01:30;18.50;99.90
26537;DHT22;14204;51.262;5.488;2023-05-07T08:03:56;18.50;99.90
26537;DHT22;14204;51.262;5.488;2023-05-07T08:06:24;18.50;99.90
26537;DHT22;14204;51.262;5.488;2023-05-07T08:08:51;18.60;99.90
26537;DHT22;14204;51.262;5.488;2023-05-07T08:11:17;18.70;99.90
26537;DHT22;14204;51.262;5.488;2023-05-07T08:13:50;18.70;99.90
26537;DHT22;14204;51.262;5.488;2023-05-07T08:16:16;18.80;99.90
26537;DHT22;14204;51.262;5.488;2023-05-07T08:18:42;18.80;99.90
26537;DHT22;14204;51.262;5.488;2023-05-07T08:21:07;18.90;99.90
26537;DHT22;14204;51.262;5.488;2023-05-07T08:23:33;19.00;99.90
26537;DHT22;14204;51.262;5.488;2023-05-07T08:26:00;19.10;99.90
26537;DHT22;14204;51.262;5.488;2023-05-07T08:28:26;19.00;99.90
26537;DHT22;14204;51.262;5.488;2023-05-07T08:30:51;19.10;99.90
26537;DHT22;14204;51.262;5.488;2023-05-07T08:33:17;19.10;99.90
26537;DHT22;14204;51.262;5.488;2023-05-07T08:35:43;19.10;99.90
26537;DHT22;14204;51.262;5.488;2023-05-07T08:38:09;19.20;99.90
26537;DHT22;14204;51.262;5.488;2023-05-07T08:40:38;19.40;99.90
26537;DHT22;14204;51.262;5.488;2023-05-07T08:43:06;19.60;99.90
26537;DHT22;14204;51.262;5.488;2023-05-07T08:45:33;19.80;99.90
26537;DHT22;14204;51.262;5.488;2023-05-07T08:48:02;19.90;99.90
26537;DHT22;14204;51.262;5.488;2023-05-07T08:50:29;20.10;99.90
26537;DHT22;14204;51.262;5.488;2023-05-07T08:52:55;20.00;99.90
26537;DHT22;14204;51.262;5.488;2023-05-07T08:55:24;20.10;99.90
26537;DHT22;14204;51.262;5.488;2023-05-07T08:57:50;20.30;99.90
26537;DHT22;14204;51.262;5.488;2023-05-07T09:00:18;20.30;99.90
26537;DHT22;14204;51.262;5.488;2023-05-07T09:02:44;20.40;99.90
26537;DHT22;14204;51.262;5.488;2023-05-07T09:05:09;20.50;99.90
26537;DHT22;14204;51.262;5.488;2023-05-07T09:07:35;20.50;99.90
26537;DHT22;14204;51.262;5.488;2023-05-07T09:10:02;20.50;99.90
26537;DHT22;14204;51.262;5.488;2023-05-07T09:12:29;20.50;99.90
26537;DHT22;14204;51.262;5.488;2023-05-07T09:14:55;20.50;99.90
26537;DHT22;14204;51.262;5.488;2023-05-07T09:17:21;20.50;99.90
26537;DHT22;14204;51.262;5.488;2023-05-07T09:19:47;20.60;99.90
26537;DHT22;14204;51.262;5.488;2023-05-07T09:22:13;20.70;99.90
26537;DHT22;14204;51.262;5.488;2023-05-07T09:24:38;20.60;99.90
26537;DHT22;14204;51.262;5.488;2023-05-07T09:27:05;20.60;99.90
26537;DHT22;14204;51.262;5.488;2023-05-07T09:29:31;20.80;99.90
26537;DHT22;14204;51.262;5.488;2023-05-07T09:32:07;20.90;99.90
26537;DHT22;14204;51.262;5.488;2023-05-07T09:34:34;21.00;99.90
26537;DHT22;14204;51.262;5.488;2023-05-07T09:37:03;21.00;99.90
26537;DHT22;14204;51.262;5.488;2023-05-07T09:39:42;21.00;99.90
26537;DHT22;14204;51.262;5.488;2023-05-07T09:42:09;21.00;99.90
26537;DHT22;14204;51.262;5.488;2023-05-07T09:44:36;21.10;99.90
26537;DHT22;14204;51.262;5.488;2023-05-07T09:47:05;21.20;99.90
26537;DHT22;14204;51.262;5.488;2023-05-07T09:49:33;21.20;99.90
26537;DHT22;14204;51.262;5.488;2023-05-07T09:52:00;21.30;99.90
26537;DHT22;14204;51.262;5.488;2023-05-07T09:54:27;21.50;99.90
26537;DHT22;14204;51.262;5.488;2023-05-07T09:56:57;21.60;99.90
26537;DHT22;14204;51.262;5.488;2023-05-07T09:59:24;21.70;99.90
26537;DHT22;14204;51.262;5.488;2023-05-07T10:01:52;21.80;99.90
26537;DHT22;14204;51.262;5.488;2023-05-07T10:04:19;21.80;99.90
26537;DHT22;14204;51.262;5.488;2023-05-07T10:06:46;21.70;99.90
26537;DHT22;14204;51.262;5.488;2023-05-07T10:09:12;21.70;99.90
26537;DHT22;14204;51.262;5.488;2023-05-07T10:11:39;21.80;99.90
26537;DHT22;14204;51.262;5.488;2023-05-07T10:14:05;22.10;99.90
26537;DHT22;14204;51.262;5.488;2023-05-07T10:16:33;22.20;99.90
26537;DHT22;14204;51.262;5.488;2023-05-07T10:19:05;22.40;99.90
26537;DHT22;14204;51.262;5.488;2023-05-07T10:21:35;22.40;99.90
26537;DHT22;14204;51.262;5.488;2023-05-07T10:24:10;22.20;99.90
26537;DHT22;14204;51.262;5.488;2023-05-07T10:26:43;22.00;99.90
26537;DHT22;14204;51.262;5.488;2023-05-07T10:32:30;22.20;99.90
26537;DHT22;14204;51.262;5.488;2023-05-07T10:35:02;22.30;99.90
26537;DHT22;14204;51.262;5.488;2023-05-07T10:37:29;22.20;99.90
26537;DHT22;14204;51.262;5.488;2023-05-07T10:39:54;22.40;99.90
26537;DHT22;14204;51.262;5.488;2023-05-07T10:42:20;22.50;99.90
26537;DHT22;14204;51.262;5.488;2023-05-07T10:44:46;22.80;99.90
26537;DHT22;14204;51.262;5.488;2023-05-07T10:47:16;23.00;99.90
26537;DHT22;14204;51.262;5.488;2023-05-07T10:52:15;23.60;99.90
26537;DHT22;14204;51.262;5.488;2023-05-07T10:54:42;23.90;99.90
26537;DHT22;14204;51.262;5.488;2023-05-07T10:59:56;24.00;99.90
26537;DHT22;14204;51.262;5.488;2023-05-07T11:02:22;24.10;99.90
26537;DHT22;14204;51.262;5.488;2023-05-07T11:05:20;23.90;99.90
26537;DHT22;14204;51.262;5.488;2023-05-07T11:07:59;23.80;99.90
26537;DHT22;14204;51.262;5.488;2023-05-07T11:10:51;23.90;99.90
26537;DHT22;14204;51.262;5.488;2023-05-07T11:13:18;23.80;99.90
26537;DHT22;14204;51.262;5.488;2023-05-07T11:15:45;23.80;99.90
26537;DHT22;14204;51.262;5.488;2023-05-07T11:18:13;23.60;99.90
26537;DHT22;14204;51.262;5.488;2023-05-07T11:20:55;23.50;99.90
26537;DHT22;14204;51.262;5.488;2023-05-07T11:26:10;23.30;99.90
26537;DHT22;14204;51.262;5.488;2023-05-07T11:28:40;23.20;99.90
26537;DHT22;14204;51.262;5.488;2023-05-07T11:31:07;23.10;99.90
26537;DHT22;14204;51.262;5.488;2023-05-07T11:33:34;23.10;99.90
26537;DHT22;14204;51.262;5.488;2023-05-07T11:36:01;22.90;99.90
26537;DHT22;14204;51.262;5.488;2023-05-07T11:38:29;22.90;99.90
26537;DHT22;14204;51.262;5.488;2023-05-07T11:40:58;22.80;99.90
26537;DHT22;14204;51.262;5.488;2023-05-07T11:43:26;22.80;99.90
26537;DHT22;14204;51.262;5.488;2023-05-07T11:45:53;22.70;99.90
26537;DHT22;14204;51.262;5.488;2023-05-07T11:48:21;22.40;99.90
26537;DHT22;14204;51.262;5.488;2023-05-07T11:50:54;22.10;99.90
26537;DHT22;14204;51.262;5.488;2023-05-07T11:53:26;21.90;99.90
26537;DHT22;14204;51.262;5.488;2023-05-07T11:55:57;21.60;99.90
26537;DHT22;14204;51.262;5.488;2023-05-07T11:58:24;21.40;99.90
26537;DHT22;14204;51.262;5.488;2023-05-07T12:00:54;21.20;99.90
26537;DHT22;14204;51.262;5.488;2023-05-07T12:03:20;21.10;99.90
26537;DHT22;14204;51.262;5.488;2023-05-07T12:05:47;21.20;99.90
26537;DHT22;14204;51.262;5.488;2023-05-07T12:08:17;21.10;99.90
26537;DHT22;14204;51.262;5.488;2023-05-07T12:10:43;21.00;99.90
26537;DHT22;14204;51.262;5.488;2023-05-07T12:15:42;20.70;99.90
26537;DHT22;14204;51.262;5.488;2023-05-07T12:18:08;20.70;99.90
26537;DHT22;14204;51.262;5.488;2023-05-07T12:20:35;20.70;99.90
26537;DHT22;14204;51.262;5.488;2023-05-07T12:23:01;20.60;99.90
26537;DHT22;14204;51.262;5.488;2023-05-07T12:25:30;20.50;99.90
26537;DHT22;14204;51.262;5.488;2023-05-07T12:27:59;20.60;99.90
26537;DHT22;14204;51.262;5.488;2023-05-07T12:30:25;20.60;99.90
26537;DHT22;14204;51.262;5.488;2023-05-07T12:32:54;20.60;99.90
26537;DHT22;14204;51.262;5.488;2023-05-07T12:35:47;20.70;99.90
26537;DHT22;14204;51.262;5.488;2023-05-07T12:38:15;20.80;99.90
26537;DHT22;14204;51.262;5.488;2023-05-07T12:40:43;20.90;99.90
26537;DHT22;14204;51.262;5.488;2023-05-07T12:45:43;21.10;99.90
26537;DHT22;14204;51.262;5.488;2023-05-07T12:48:10;21.30;99.90
26537;DHT22;14204;51.262;5.488;2023-05-07T12:50:36;21.20;99.90
26537;DHT22;14204;51.262;5.488;2023-05-07T12:53:04;21.30;99.90
26537;DHT22;14204;51.262;5.488;2023-05-07T12:55:32;21.20;99.90
26537;DHT22;14204;51.262;5.488;2023-05-07T12:58:01;21.20;99.90
26537;DHT22;14204;51.262;5.488;2023-05-07T13:00:38;21.20;99.90
26537;DHT22;14204;51.262;5.488;2023-05-07T13:03:04;21.10;99.90
26537;DHT22;14204;51.262;5.488;2023-05-07T13:05:31;21.20;99.90
26537;DHT22;14204;51.262;5.488;2023-05-07T13:07:57;21.10;99.90
26537;DHT22;14204;51.262;5.488;2023-05-07T13:10:24;21.20;99.90
26537;DHT22;14204;51.262;5.488;2023-05-07T13:12:50;21.30;99.90
26537;DHT22;14204;51.262;5.488;2023-05-07T13:15:17;21.20;99.90
26537;DHT22;14204;51.262;5.488;2023-05-07T13:17:42;21.20;99.90
26537;DHT22;14204;51.262;5.488;2023-05-07T13:20:11;21.30;99.90
26537;DHT22;14204;51.262;5.488;2023-05-07T13:22:39;21.40;99.90
26537;DHT22;14204;51.262;5.488;2023-05-07T13:25:05;21.50;99.90
26537;DHT22;14204;51.262;5.488;2023-05-07T13:27:32;21.60;99.90
26537;DHT22;14204;51.262;5.488;2023-05-07T13:29:57;21.70;99.90
26537;DHT22;14204;51.262;5.488;2023-05-07T13:32:23;21.80;99.90
26537;DHT22;14204;51.262;5.488;2023-05-07T13:34:49;21.80;99.90
26537;DHT22;14204;51.262;5.488;2023-05-07T13:37:14;21.80;99.90
26537;DHT22;14204;51.262;5.488;2023-05-07T13:39:40;21.70;99.90
26537;DHT22;14204;51.262;5.488;2023-05-07T13:42:09;21.70;99.90
26537;DHT22;14204;51.262;5.488;2023-05-07T13:44:35;21.80;99.90
26537;DHT22;14204;51.262;5.488;2023-05-07T13:47:01;21.80;99.90
26537;DHT22;14204;51.262;5.488;2023-05-07T13:49:27;21.80;99.90
26537;DHT22;14204;51.262;5.488;2023-05-07T13:51:53;21.90;99.90
26537;DHT22;14204;51.262;5.488;2023-05-07T13:54:18;21.80;99.90
26537;DHT22;14204;51.262;5.488;2023-05-07T13:56:44;21.70;99.90
26537;DHT22;14204;51.262;5.488;2023-05-07T13:59:10;21.70;99.90
26537;DHT22;14204;51.262;5.488;2023-05-07T14:01:36;21.70;99.90
26537;DHT22;14204;51.262;5.488;2023-05-07T14:04:01;21.80;99.90
26537;DHT22;14204;51.262;5.488;2023-05-07T14:06:27;21.80;99.90
26537;DHT22;14204;51.262;5.488;2023-05-07T14:08:53;21.90;99.90
26537;DHT22;14204;51.262;5.488;2023-05-07T14:11:18;21.90;99.90
26537;DHT22;14204;51.262;5.488;2023-05-07T14:13:44;21.80;99.90
26537;DHT22;14204;51.262;5.488;2023-05-07T14:16:10;21.80;99.90
26537;DHT22;14204;51.262;5.488;2023-05-07T14:18:35;21.80;99.90
26537;DHT22;14204;51.262;5.488;2023-05-07T14:21:04;21.70;99.90
26537;DHT22;14204;51.262;5.488;2023-05-07T14:23:31;21.60;99.90
26537;DHT22;14204;51.262;5.488;2023-05-07T14:25:57;21.70;99.90
26537;DHT22;14204;51.262;5.488;2023-05-07T14:28:23;21.70;99.90
26537;DHT22;14204;51.262;5.488;2023-05-07T14:30:49;21.70;99.90
26537;DHT22;14204;51.262;5.488;2023-05-07T14:33:15;21.70;99.90
26537;DHT22;14204;51.262;5.488;2023-05-07T14:35:41;21.60;99.90
26537;DHT22;14204;51.262;5.488;2023-05-07T14:38:06;21.50;99.90
26537;DHT22;14204;51.262;5.488;2023-05-07T14:40:32;21.50;99.90
26537;DHT22;14204;51.262;5.488;2023-05-07T14:42:58;21.40;99.90
26537;DHT22;14204;51.262;5.488;2023-05-07T14:45:23;21.40;99.90
26537;DHT22;14204;51.262;5.488;2023-05-07T14:47:49;21.30;99.90
26537;DHT22;14204;51.262;5.488;2023-05-07T14:50:15;21.30;99.90
26537;DHT22;14204;51.262;5.488;2023-05-07T14:52:41;21.20;99.90
26537;DHT22;14204;51.262;5.488;2023-05-07T14:55:07;21.30;99.90
26537;DHT22;14204;51.262;5.488;2023-05-07T14:57:33;21.30;99.90
26537;DHT22;14204;51.262;5.488;2023-05-07T15:00:01;21.40;99.90
26537;DHT22;14204;51.262;5.488;2023-05-07T15:02:27;21.40;99.90
26537;DHT22;14204;51.262;5.488;2023-05-07T15:04:53;21.50;99.90
26537;DHT22;14204;51.262;5.488;2023-05-07T15:07:18;21.60;99.90
26537;DHT22;14204;51.262;5.488;2023-05-07T15:09:44;21.60;99.90
26537;DHT22;14204;51.262;5.488;2023-05-07T15:12:11;21.70;99.90
26537;DHT22;14204;51.262;5.488;2023-05-07T15:14:38;21.70;99.90
26537;DHT22;14204;51.262;5.488;2023-05-07T15:17:04;21.70;99.90
26537;DHT22;14204;51.262;5.488;2023-05-07T15:19:29;21.60;99.90
26537;DHT22;14204;51.262;5.488;2023-05-07T15:21:57;21.50;99.90
26537;DHT22;14204;51.262;5.488;2023-05-07T15:24:23;21.70;99.90
26537;DHT22;14204;51.262;5.488;2023-05-07T15:26:49;21.70;99.90
26537;DHT22;14204;51.262;5.488;2023-05-07T15:29:15;21.60;99.90
26537;DHT22;14204;51.262;5.488;2023-05-07T15:31:40;21.70;99.90
26537;DHT22;14204;51.262;5.488;2023-05-07T15:34:06;21.80;99.90
26537;DHT22;14204;51.262;5.488;2023-05-07T15:36:32;21.80;99.90
26537;DHT22;14204;51.262;5.488;2023-05-07T15:38:58;21.60;99.90
26537;DHT22;14204;51.262;5.488;2023-05-07T15:41:24;21.70;99.90
26537;DHT22;14204;51.262;5.488;2023-05-07T15:43:51;21.80;99.90